createdAt,value
2023-04-30T00:02:16.452Z,62.46
2023-04-30T00:04:46.248Z,62.78
2023-04-30T00:07:14.672Z,62.71
2023-04-30T00:09:43.192Z,62.83
2023-04-30T00:12:11.434Z,63.11
2023-04-30T00:14:39.678Z,62.50
2023-04-30T00:17:07.892Z,62.46
2023-04-30T00:19:36.243Z,63.31
2023-04-30T00:22:06.498Z,62.83
2023-04-30T00:24:34.816Z,62.87
2023-04-30T00:27:03.406Z,62.97
2023-04-30T00:29:31.668Z,62.97
2023-04-30T00:31:59.957Z,62.80
2023-04-30T00:34:29.090Z,63.02
2023-04-30T00:36:57.455Z,62.99
2023-04-30T00:39:27.208Z,62.98
2023-04-30T00:41:55.517Z,63.08
2023-04-30T00:44:23.741Z,62.73
2023-04-30T00:46:52.244Z,62.86
2023-04-30T00:49:21.059Z,63.19
2023-04-30T00:51:49.377Z,62.73
2023-04-30T00:54:18.132Z,62.87
2023-04-30T00:56:47.984Z,63.22
2023-04-30T00:59:16.610Z,62.38
2023-04-30T01:01:44.912Z,62.94
2023-04-30T01:04:13.597Z,62.17
2023-04-30T01:06:43.356Z,62.90
2023-04-30T01:09:12.121Z,62.21
2023-04-30T01:11:54.017Z,62.66
2023-04-30T01:14:28.777Z,62.50
2023-04-30T01:17:06.029Z,63.04
2023-04-30T01:19:42.635Z,62.92
2023-04-30T01:22:16.098Z,62.55
2023-04-30T01:25:12.313Z,62.47
2023-04-30T01:28:03.668Z,62.69
2023-04-30T01:30:33.550Z,62.49
2023-04-30T01:33:02.165Z,62.51
2023-04-30T01:35:44.897Z,62.34
2023-04-30T01:38:23.004Z,62.55
2023-04-30T01:40:58.024Z,62.49
2023-04-30T01:43:35.219Z,62.53
2023-04-30T01:46:13.297Z,62.82
2023-04-30T01:48:48.623Z,62.55
2023-04-30T01:51:25.279Z,62.51
2023-04-30T01:53:56.692Z,62.52
2023-04-30T01:56:32.704Z,62.50
2023-04-30T01:59:03.973Z,62.59
2023-04-30T02:01:33.684Z,62.70
2023-04-30T02:04:03.737Z,62.76
2023-04-30T02:06:32.392Z,62.74
2023-04-30T02:09:06.261Z,62.43
2023-04-30T02:11:34.647Z,62.30
2023-04-30T02:14:04.214Z,62.44
2023-04-30T02:16:32.547Z,62.68
2023-04-30T02:19:01.697Z,62.32
2023-04-30T02:21:30.052Z,62.53
2023-04-30T02:23:58.352Z,62.44
2023-04-30T02:26:26.722Z,62.41
2023-04-30T02:28:55.133Z,62.69
2023-04-30T02:31:24.905Z,62.51
2023-04-30T02:33:53.247Z,62.50
2023-04-30T02:36:21.666Z,62.57
2023-04-30T02:38:49.910Z,62.33
2023-04-30T02:41:18.384Z,62.53
2023-04-30T02:43:46.703Z,62.52
2023-04-30T02:46:14.994Z,62.47
2023-04-30T02:48:44.692Z,62.42
2023-04-30T02:51:13.379Z,62.47
2023-04-30T02:53:41.777Z,62.41
2023-04-30T02:56:10.125Z,62.38
2023-04-30T02:58:38.368Z,62.33
2023-04-30T03:01:07.049Z,62.62
2023-04-30T03:03:35.449Z,62.47
2023-04-30T03:06:05.343Z,62.45
2023-04-30T03:08:33.751Z,62.32
2023-04-30T03:11:02.451Z,62.33
2023-04-30T03:13:30.941Z,62.47
2023-04-30T03:16:00.333Z,62.34
2023-04-30T03:18:29.164Z,62.36
2023-04-30T03:20:57.992Z,62.39
2023-04-30T03:23:29.252Z,62.43
2023-04-30T03:25:57.958Z,62.36
2023-04-30T03:28:26.248Z,62.60
2023-04-30T03:30:54.477Z,62.41
2023-04-30T03:33:22.842Z,62.45
2023-04-30T03:35:51.854Z,62.41
2023-04-30T03:38:20.126Z,62.34
2023-04-30T03:40:49.768Z,62.34
2023-04-30T03:43:18.056Z,62.41
2023-04-30T03:45:46.516Z,62.46
2023-04-30T03:48:14.875Z,62.39
2023-04-30T03:50:43.256Z,62.28
2023-04-30T03:53:13.851Z,62.32
2023-04-30T03:55:42.737Z,62.31
2023-04-30T03:58:12.548Z,62.30
2023-04-30T04:00:42.677Z,62.41
2023-04-30T04:03:11.561Z,62.27
2023-04-30T04:05:42.198Z,62.34
2023-04-30T04:08:11.285Z,62.41
2023-04-30T04:10:40.176Z,62.30
2023-04-30T04:13:09.934Z,62.32
2023-04-30T04:15:40.865Z,62.39
2023-04-30T04:18:09.239Z,62.38
2023-04-30T04:20:37.492Z,62.29
2023-04-30T04:23:05.748Z,62.33
2023-04-30T04:25:34.297Z,62.36
2023-04-30T04:28:03.051Z,62.33
2023-04-30T04:30:31.679Z,62.18
2023-04-30T04:33:01.414Z,62.30
2023-04-30T04:35:31.120Z,62.06
2023-04-30T04:37:59.412Z,62.18
2023-04-30T04:40:29.197Z,62.19
2023-04-30T04:42:58.227Z,62.15
2023-04-30T04:45:26.784Z,62.15
2023-04-30T04:47:55.239Z,62.10
2023-04-30T04:50:25.405Z,62.03
2023-04-30T04:52:53.740Z,62.01
2023-04-30T04:55:21.955Z,62.15
2023-04-30T04:57:50.187Z,61.98
2023-04-30T05:00:19.312Z,62.12
2023-04-30T05:02:47.697Z,62.11
2023-04-30T05:05:16.160Z,61.93
2023-04-30T05:07:46.048Z,62.05
2023-04-30T05:10:14.353Z,62.05
2023-04-30T05:12:42.554Z,61.92
2023-04-30T05:15:11.691Z,61.95
2023-04-30T05:17:39.985Z,62.05
2023-04-30T05:20:09.464Z,61.89
2023-04-30T05:22:37.694Z,61.93
2023-04-30T05:25:08.580Z,61.86
2023-04-30T05:27:37.257Z,61.89
2023-04-30T05:30:06.770Z,62.03
2023-04-30T05:32:36.173Z,61.79
2023-04-30T05:35:04.895Z,61.83
2023-04-30T05:37:33.161Z,62.12
2023-04-30T05:40:01.526Z,61.98
2023-04-30T05:42:31.120Z,61.79
2023-04-30T05:44:59.383Z,62.08
2023-04-30T05:47:27.614Z,61.98
2023-04-30T05:49:56.880Z,61.78
2023-04-30T05:52:25.146Z,61.70
2023-04-30T05:54:53.998Z,61.67
2023-04-30T05:57:22.277Z,61.96
2023-04-30T05:59:51.900Z,62.13
2023-04-30T06:02:20.258Z,62.23
2023-04-30T06:04:49.110Z,62.05
2023-04-30T06:07:17.439Z,61.97
2023-04-30T06:09:45.673Z,62.27
2023-04-30T06:12:14.157Z,61.75
2023-04-30T06:14:45.442Z,62.28
2023-04-30T06:17:15.979Z,62.37
2023-04-30T06:19:44.259Z,62.15
2023-04-30T06:22:12.510Z,62.28
2023-04-30T06:24:40.728Z,62.50
2023-04-30T06:27:09.040Z,62.24
2023-04-30T06:29:37.311Z,62.44
2023-04-30T06:32:08.159Z,62.90
2023-04-30T06:34:38.723Z,62.62
2023-04-30T06:37:07.099Z,63.10
2023-04-30T06:39:35.359Z,63.56
2023-04-30T06:42:04.080Z,63.01
2023-04-30T06:44:33.127Z,63.04
2023-04-30T06:47:01.464Z,62.87
2023-04-30T06:49:29.779Z,63.01
2023-04-30T06:51:59.531Z,62.92
2023-04-30T06:54:27.805Z,63.95
2023-04-30T06:56:56.033Z,63.07
2023-04-30T06:59:24.268Z,63.38
2023-04-30T07:01:52.583Z,63.44
2023-04-30T07:04:21.099Z,63.72
2023-04-30T07:06:49.343Z,63.63
2023-04-30T07:09:18.996Z,63.66
2023-04-30T07:11:47.411Z,63.34
2023-04-30T07:14:15.630Z,63.78
2023-04-30T07:16:43.833Z,64.16
2023-04-30T07:19:12.337Z,64.18
2023-04-30T07:21:40.581Z,64.01
2023-04-30T07:24:08.803Z,63.95
2023-04-30T07:26:38.589Z,63.96
2023-04-30T07:29:06.908Z,64.18
2023-04-30T07:31:35.138Z,64.01
2023-04-30T07:34:03.347Z,64.24
2023-04-30T07:36:31.615Z,64.51
2023-04-30T07:38:59.903Z,65.20
2023-04-30T07:41:28.203Z,64.47
2023-04-30T07:43:57.806Z,64.59
2023-04-30T07:46:26.232Z,64.85
2023-04-30T07:48:54.522Z,63.95
2023-04-30T07:51:22.750Z,64.67
2023-04-30T07:53:53.151Z,65.07
2023-04-30T07:56:21.594Z,64.77
2023-04-30T07:58:49.828Z,63.66
2023-04-30T08:01:19.419Z,64.24
2023-04-30T08:03:47.719Z,64.21
2023-04-30T08:06:16.132Z,64.11
2023-04-30T08:08:44.352Z,64.64
2023-04-30T08:11:12.842Z,64.77
2023-04-30T08:13:41.894Z,64.14
2023-04-30T08:16:10.363Z,65.22
2023-04-30T08:18:43.895Z,64.99
2023-04-30T08:21:12.629Z,64.82
2023-04-30T08:23:40.903Z,64.53
2023-04-30T08:26:09.180Z,65.35
2023-04-30T08:28:37.489Z,63.76
2023-04-30T08:31:06.145Z,65.01
2023-04-30T08:33:34.353Z,64.76
2023-04-30T08:36:04.054Z,64.37
2023-04-30T08:38:32.303Z,63.29
2023-04-30T08:41:10.261Z,64.42
2023-04-30T08:43:38.734Z,65.86
2023-04-30T08:46:07.218Z,66.36
2023-04-30T08:48:35.814Z,64.21
2023-04-30T08:51:06.251Z,63.67
2023-04-30T08:53:36.990Z,61.55
2023-04-30T08:56:05.952Z,63.31
2023-04-30T08:58:34.401Z,63.98
2023-04-30T09:01:03.793Z,64.20
2023-04-30T09:03:32.634Z,64.07
2023-04-30T09:06:01.065Z,63.35
2023-04-30T09:08:48.020Z,64.43
2023-04-30T09:11:26.602Z,63.57
2023-04-30T09:13:56.629Z,63.44
2023-04-30T09:16:25.875Z,65.39
2023-04-30T09:18:54.639Z,62.88
2023-04-30T09:21:33.039Z,62.72
2023-04-30T09:24:04.198Z,63.60
2023-04-30T09:26:34.512Z,62.91
2023-04-30T09:29:07.913Z,63.50
2023-04-30T09:31:37.580Z,61.73
2023-04-30T09:34:06.393Z,61.43
2023-04-30T09:36:35.303Z,62.35
2023-04-30T09:39:15.584Z,60.51
2023-04-30T09:41:45.103Z,60.16
2023-04-30T09:44:28.886Z,61.65
2023-04-30T09:46:58.740Z,62.37
2023-04-30T09:49:27.883Z,62.88
2023-04-30T09:51:57.560Z,61.50
2023-04-30T09:54:29.983Z,62.70
2023-04-30T09:56:59.519Z,111.26
2023-04-30T09:59:32.126Z,109.81
2023-04-30T10:02:02.119Z,109.23
2023-04-30T10:04:33.411Z,111.81
2023-04-30T10:07:05.021Z,108.59
2023-04-30T10:09:42.115Z,110.18
2023-04-30T10:12:15.287Z,108.53
2023-04-30T10:14:49.448Z,107.54
2023-04-30T10:17:19.366Z,105.76
2023-04-30T10:19:50.979Z,104.75
2023-04-30T10:22:20.730Z,103.93
2023-04-30T10:24:51.724Z,104.60
2023-04-30T10:27:21.377Z,106.25
2023-04-30T10:29:51.358Z,104.03
2023-04-30T10:32:21.542Z,103.32
2023-04-30T10:34:55.857Z,100.93
2023-04-30T10:37:32.360Z,103.58
2023-04-30T10:40:05.081Z,101.43
2023-04-30T10:42:35.891Z,99.07
2023-04-30T10:45:04.707Z,99.55
2023-04-30T10:47:33.182Z,100.06
2023-04-30T10:50:05.425Z,100.08
2023-04-30T10:52:33.787Z,101.05
2023-04-30T10:55:06.050Z,97.57
2023-04-30T10:57:42.571Z,98.06
2023-04-30T11:00:20.945Z,99.88
2023-04-30T11:02:50.076Z,94.74
2023-04-30T11:05:19.857Z,94.65
2023-04-30T11:07:50.322Z,90.31
2023-04-30T11:10:22.992Z,87.18
2023-04-30T11:12:52.420Z,91.39
2023-04-30T11:15:23.064Z,88.96
2023-04-30T11:17:51.577Z,90.15
2023-04-30T11:20:22.073Z,92.90
2023-04-30T11:23:08.915Z,88.27
2023-04-30T11:25:43.119Z,87.42
2023-04-30T11:28:16.610Z,86.03
2023-04-30T11:30:53.087Z,87.38
2023-04-30T11:33:22.370Z,84.68
2023-04-30T11:35:53.521Z,81.56
2023-04-30T11:38:23.712Z,84.84
2023-04-30T11:40:54.913Z,82.71
2023-04-30T11:43:24.561Z,83.11
2023-04-30T11:46:04.420Z,83.00
2023-04-30T11:48:33.415Z,83.42
2023-04-30T11:51:04.620Z,81.88
2023-04-30T11:53:33.007Z,81.59
2023-04-30T11:56:06.427Z,81.20
2023-04-30T11:58:35.730Z,79.34
2023-04-30T12:01:03.956Z,82.86
2023-04-30T12:03:33.499Z,83.84
2023-04-30T12:06:02.459Z,80.28
2023-04-30T12:08:30.752Z,82.33
2023-04-30T12:10:59.060Z,82.38
2023-04-30T12:13:28.948Z,80.65
2023-04-30T12:16:00.914Z,81.21
2023-04-30T12:18:29.264Z,82.05
2023-04-30T12:20:57.619Z,79.47
2023-04-30T12:23:26.119Z,80.19
2023-04-30T12:25:54.389Z,79.33
2023-04-30T12:28:25.469Z,82.13
2023-04-30T12:30:56.243Z,81.68
2023-04-30T12:33:24.522Z,78.86
2023-04-30T12:35:54.084Z,79.01
2023-04-30T12:38:23.389Z,78.20
2023-04-30T12:40:51.679Z,78.13
2023-04-30T12:43:20.150Z,78.78
2023-04-30T12:45:51.707Z,77.62
2023-04-30T12:48:23.255Z,78.98
2023-04-30T12:50:56.418Z,78.29
2023-04-30T12:53:25.031Z,78.58
2023-04-30T12:56:10.429Z,79.08
2023-04-30T12:58:39.296Z,80.50
2023-04-30T13:01:12.634Z,75.25
2023-04-30T13:03:42.866Z,80.71
2023-04-30T13:06:11.293Z,78.34
2023-04-30T13:08:56.277Z,78.25
2023-04-30T13:11:26.278Z,80.17
2023-04-30T13:13:55.844Z,76.20
2023-04-30T13:16:24.953Z,75.18
2023-04-30T13:18:55.324Z,72.77
2023-04-30T13:21:25.082Z,75.31
2023-04-30T13:23:54.726Z,76.37
2023-04-30T13:26:24.618Z,78.43
2023-04-30T13:28:53.129Z,74.19
2023-04-30T13:31:22.276Z,75.58
2023-04-30T13:33:50.838Z,75.57
2023-04-30T13:36:21.011Z,73.94
2023-04-30T13:38:49.336Z,76.34
2023-04-30T13:41:17.790Z,75.54
2023-04-30T13:43:47.638Z,70.45
2023-04-30T13:46:16.739Z,75.02
2023-04-30T13:48:48.183Z,74.35
2023-04-30T13:51:16.443Z,78.87
2023-04-30T13:53:46.135Z,79.27
2023-04-30T13:56:15.405Z,78.92
2023-04-30T13:58:44.108Z,76.82
2023-04-30T14:01:12.369Z,77.36
2023-04-30T14:03:41.042Z,78.03
2023-04-30T14:06:09.510Z,76.60
2023-04-30T14:08:37.719Z,72.02
2023-04-30T14:11:07.444Z,71.33
2023-04-30T14:13:35.726Z,73.71
2023-04-30T14:16:04.160Z,74.96
2023-04-30T14:18:32.577Z,73.86
2023-04-30T14:21:00.853Z,71.96
2023-04-30T14:23:29.376Z,74.32
2023-04-30T14:25:57.659Z,76.02
2023-04-30T14:28:27.259Z,78.02
2023-04-30T14:30:55.517Z,78.87
2023-04-30T14:33:23.767Z,79.04
2023-04-30T14:35:51.973Z,78.41
2023-04-30T14:38:20.721Z,79.24
2023-04-30T14:40:48.953Z,81.27
2023-04-30T14:43:17.358Z,81.26
2023-04-30T14:45:47.203Z,80.75
2023-04-30T14:48:15.534Z,79.30
2023-04-30T14:50:44.834Z,76.37
2023-04-30T14:53:13.299Z,75.68
2023-04-30T14:55:41.888Z,78.24
2023-04-30T14:58:10.198Z,80.07
2023-04-30T15:00:38.387Z,80.59
2023-04-30T15:03:08.187Z,79.68
2023-04-30T15:05:36.884Z,80.19
2023-04-30T15:08:06.594Z,80.16
2023-04-30T15:10:35.397Z,78.68
2023-04-30T15:13:04.087Z,79.01
2023-04-30T15:15:32.493Z,77.85
2023-04-30T15:18:04.051Z,78.58
2023-04-30T15:20:33.702Z,78.79
2023-04-30T15:23:01.967Z,76.72
2023-04-30T15:25:30.461Z,76.24
2023-04-30T15:27:59.563Z,79.57
2023-04-30T15:30:28.849Z,79.25
2023-04-30T15:32:57.115Z,80.49
2023-04-30T15:35:26.528Z,80.87
2023-04-30T15:37:56.165Z,79.82
2023-04-30T15:40:24.630Z,79.76
2023-04-30T15:42:52.848Z,80.07
2023-04-30T15:45:21.769Z,78.92
2023-04-30T15:47:50.039Z,79.36
2023-04-30T15:50:18.342Z,76.72
2023-04-30T15:52:46.577Z,78.58
2023-04-30T15:55:16.261Z,75.60
2023-04-30T15:57:44.730Z,74.95
2023-04-30T16:00:15.199Z,73.49
2023-04-30T16:02:43.630Z,72.17
2023-04-30T16:05:12.281Z,73.70
2023-04-30T16:07:43.585Z,71.71
2023-04-30T16:10:13.114Z,73.78
2023-04-30T16:12:42.743Z,75.37
2023-04-30T16:15:12.608Z,78.25
2023-04-30T16:17:41.095Z,79.82
2023-04-30T16:20:10.498Z,79.59
2023-04-30T16:22:38.914Z,80.14
2023-04-30T16:25:10.002Z,81.14
2023-04-30T16:27:38.336Z,79.35
2023-04-30T16:30:09.642Z,79.39
2023-04-30T16:32:38.040Z,80.45
2023-04-30T16:35:07.179Z,80.52
2023-04-30T16:37:35.898Z,79.92
2023-04-30T16:40:06.411Z,80.20
2023-04-30T16:42:35.209Z,79.49
2023-04-30T16:45:03.646Z,81.44
2023-04-30T16:47:33.986Z,80.94
2023-04-30T16:50:02.522Z,80.67
2023-04-30T16:52:30.980Z,81.86
2023-04-30T16:54:59.193Z,80.89
2023-04-30T16:57:27.431Z,79.01
2023-04-30T16:59:55.860Z,79.37
2023-04-30T17:02:24.652Z,78.50
2023-04-30T17:04:54.326Z,80.25
2023-04-30T17:07:22.587Z,80.01
2023-04-30T17:09:50.790Z,78.89
2023-04-30T17:12:19.074Z,78.63
2023-04-30T17:14:47.364Z,78.66
2023-04-30T17:17:16.021Z,78.98
2023-04-30T17:19:44.336Z,78.06
2023-04-30T17:22:15.050Z,78.66
2023-04-30T17:24:43.275Z,79.01
2023-04-30T17:27:11.716Z,79.88
2023-04-30T17:29:40.038Z,80.78
2023-04-30T17:32:09.773Z,79.68
2023-04-30T17:34:38.429Z,80.20
2023-04-30T17:37:08.354Z,81.13
2023-04-30T17:39:37.908Z,80.60
2023-04-30T17:42:06.406Z,81.07
2023-04-30T17:44:34.670Z,80.91
2023-04-30T17:47:03.310Z,80.59
2023-04-30T17:49:31.611Z,82.13
2023-04-30T17:52:01.240Z,81.72
2023-04-30T17:54:30.625Z,82.17
2023-04-30T17:57:01.178Z,82.70
2023-04-30T17:59:30.942Z,82.47
2023-04-30T18:01:59.744Z,83.38
2023-04-30T18:04:35.543Z,83.68
2023-04-30T18:07:03.778Z,84.09
2023-04-30T18:09:32.249Z,82.76
2023-04-30T18:12:01.903Z,83.96
2023-04-30T18:14:30.171Z,84.51
2023-04-30T18:16:58.710Z,84.74
2023-04-30T18:19:26.966Z,84.26
2023-04-30T18:21:56.756Z,83.73
2023-04-30T18:24:27.624Z,85.07
2023-04-30T18:26:55.955Z,85.03
2023-04-30T18:29:25.770Z,84.52
2023-04-30T18:31:54.088Z,84.42
2023-04-30T18:34:22.477Z,85.27
2023-04-30T18:36:50.813Z,86.84
2023-04-30T18:39:19.386Z,86.64
2023-04-30T18:41:47.839Z,86.44
2023-04-30T18:44:16.479Z,87.03
2023-04-30T18:46:46.170Z,87.55
2023-04-30T18:49:14.395Z,87.55
2023-04-30T18:51:42.672Z,88.18
2023-04-30T18:54:12.540Z,88.31
2023-04-30T18:56:41.111Z,88.12
2023-04-30T18:59:10.439Z,88.56
2023-04-30T19:01:38.749Z,88.24
2023-04-30T19:04:13.631Z,89.24
2023-04-30T19:06:41.968Z,90.13
2023-04-30T19:09:10.269Z,90.20
2023-04-30T19:11:38.554Z,89.89
2023-04-30T19:14:07.399Z,90.02
2023-04-30T19:16:35.687Z,91.01
2023-04-30T19:19:04.072Z,90.58
2023-04-30T19:21:36.226Z,91.00
2023-04-30T19:24:05.512Z,91.42
2023-04-30T19:26:34.730Z,91.88
2023-04-30T19:29:03.437Z,91.66
2023-04-30T19:31:31.820Z,92.06
2023-04-30T19:34:01.237Z,92.00
2023-04-30T19:36:29.511Z,92.98
2023-04-30T19:38:59.216Z,93.01
2023-04-30T19:41:27.711Z,93.23
2023-04-30T19:43:56.398Z,93.18
2023-04-30T19:46:24.692Z,93.14
2023-04-30T19:48:52.928Z,93.65
2023-04-30T19:51:21.155Z,94.36
2023-04-30T19:53:50.386Z,94.39
2023-04-30T19:56:20.048Z,94.72
2023-04-30T19:58:48.526Z,95.88
2023-04-30T20:01:17.323Z,94.94
2023-04-30T20:03:45.811Z,94.88
2023-04-30T20:06:14.142Z,94.75
2023-04-30T20:08:42.395Z,95.53
2023-04-30T20:11:10.684Z,95.70
2023-04-30T20:13:40.275Z,95.25
2023-04-30T20:16:11.302Z,96.20
2023-04-30T20:18:39.633Z,96.43
2023-04-30T20:21:08.503Z,95.86
2023-04-30T20:23:39.306Z,95.97
2023-04-30T20:26:08.314Z,96.23
2023-04-30T20:28:36.745Z,96.93
2023-04-30T20:31:07.410Z,96.25
2023-04-30T20:33:35.663Z,96.52
2023-04-30T20:36:04.048Z,96.31
2023-04-30T20:38:32.506Z,96.52
2023-04-30T20:41:00.755Z,96.51
2023-04-30T20:43:29.230Z,97.23
2023-04-30T20:45:58.862Z,97.36
2023-04-30T20:48:28.719Z,96.90
2023-04-30T20:50:57.025Z,96.86
2023-04-30T20:53:25.306Z,96.97
2023-04-30T20:55:59.704Z,97.47
2023-04-30T20:58:28.238Z,97.39
2023-04-30T21:00:56.672Z,97.68
2023-04-30T21:03:25.096Z,97.94
2023-04-30T21:05:54.807Z,97.71
2023-04-30T21:08:22.990Z,97.93
2023-04-30T21:10:53.896Z,98.16
2023-04-30T21:13:22.302Z,97.47
2023-04-30T21:15:54.232Z,97.65
2023-04-30T21:18:22.481Z,98.07
2023-04-30T21:20:50.745Z,98.36
2023-04-30T21:23:20.450Z,97.97
2023-04-30T21:25:48.694Z,97.16
2023-04-30T21:28:17.322Z,98.63
2023-04-30T21:30:45.915Z,97.56
2023-04-30T21:33:14.418Z,97.91
2023-04-30T21:35:42.753Z,98.90
2023-04-30T21:38:12.468Z,98.70
2023-04-30T21:40:44.121Z,98.20
2023-04-30T21:43:12.533Z,97.95
2023-04-30T21:45:43.153Z,98.03
2023-04-30T21:48:11.693Z,98.85
2023-04-30T21:50:40.234Z,98.47
2023-04-30T21:53:08.831Z,98.39
2023-04-30T21:55:37.143Z,98.29
2023-04-30T21:58:06.818Z,98.10
2023-04-30T22:00:36.026Z,98.94
2023-04-30T22:03:04.664Z,98.31
2023-04-30T22:05:32.979Z,97.63
2023-04-30T22:08:01.840Z,97.53
2023-04-30T22:10:30.210Z,98.49
2023-04-30T22:12:58.492Z,98.67
2023-04-30T22:15:37.300Z,98.50
2023-04-30T22:18:15.791Z,98.59
2023-04-30T22:20:44.038Z,98.64
2023-04-30T22:23:12.348Z,99.02
2023-04-30T22:25:40.679Z,98.59
2023-04-30T22:28:10.187Z,98.15
2023-04-30T22:30:40.536Z,98.72
2023-04-30T22:33:08.948Z,98.45
2023-04-30T22:35:38.199Z,98.97
2023-04-30T22:38:06.435Z,98.63
2023-04-30T22:40:36.305Z,98.51
2023-04-30T22:43:05.914Z,97.68
2023-04-30T22:45:36.990Z,98.61
2023-04-30T22:48:07.509Z,98.56
2023-04-30T22:50:35.746Z,98.64
2023-04-30T22:53:03.969Z,98.41
2023-04-30T22:55:32.851Z,97.85
2023-04-30T22:58:01.730Z,98.39
2023-04-30T23:00:30.168Z,98.35
2023-04-30T23:02:58.438Z,98.43
2023-04-30T23:05:29.167Z,98.35
2023-04-30T23:07:57.435Z,97.85
2023-04-30T23:10:25.781Z,98.26
2023-04-30T23:12:56.143Z,98.16
2023-04-30T23:15:24.376Z,98.28
2023-04-30T23:17:54.510Z,98.67
2023-04-30T23:20:23.579Z,98.25
2023-04-30T23:22:53.250Z,98.45
2023-04-30T23:25:21.584Z,98.15
2023-04-30T23:27:49.887Z,98.07
2023-04-30T23:30:18.283Z,98.80
2023-04-30T23:32:46.626Z,99.03
2023-04-30T23:35:14.841Z,98.70
2023-04-30T23:37:43.037Z,99.12
2023-04-30T23:40:13.368Z,98.66
2023-04-30T23:42:41.742Z,98.39
2023-04-30T23:45:11.118Z,98.70
2023-04-30T23:47:39.450Z,99.03
2023-04-30T23:50:09.086Z,98.12
2023-04-30T23:52:37.752Z,99.06
2023-04-30T23:55:07.254Z,99.39
2023-04-30T23:57:36.886Z,99.56
